sensor_id;sensor_type;location;lat;lon;timestamp;P1;durP1;ratioP1;P2;durP2;ratioP2
30181;SDS011;16990;49.056;9.240;2022-09-03T00:02:05;0.93;;;0.70;;
30181;SDS011;16990;49.056;9.240;2022-09-03T00:04:41;9.48;;;1.20;;
30181;SDS011;16990;49.056;9.240;2022-09-03T00:07:16;4.18;;;1.10;;
30181;SDS011;16990;49.056;9.240;2022-09-03T00:09:50;3.92;;;1.08;;
30181;SDS011;16990;49.056;9.240;2022-09-03T00:12:22;2.03;;;1.13;;
30181;SDS011;16990;49.056;9.240;2022-09-03T00:14:54;1.50;;;1.10;;
30181;SDS011;16990;49.056;9.240;2022-09-03T00:17:26;3.03;;;1.25;;
30181;SDS011;16990;49.056;9.240;2022-09-03T00:19:57;3.90;;;0.93;;
30181;SDS011;16990;49.056;9.240;2022-09-03T00:22:31;2.35;;;1.08;;
30181;SDS011;16990;49.056;9.240;2022-09-03T00:25:01;4.35;;;1.20;;
30181;SDS011;16990;49.056;9.240;2022-09-03T00:27:31;4.03;;;1.63;;
30181;SDS011;16990;49.056;9.240;2022-09-03T00:30:03;4.55;;;1.00;;
30181;SDS011;16990;49.056;9.240;2022-09-03T00:32:33;2.78;;;1.55;;
30181;SDS011;16990;49.056;9.240;2022-09-03T00:35:05;1.63;;;1.08;;
30181;SDS011;16990;49.056;9.240;2022-09-03T00:37:37;1.10;;;0.90;;
30181;SDS011;16990;49.056;9.240;2022-09-03T00:40:06;1.40;;;0.98;;
30181;SDS011;16990;49.056;9.240;2022-09-03T00:42:44;1.60;;;1.13;;
30181;SDS011;16990;49.056;9.240;2022-09-03T00:45:21;2.03;;;1.13;;
30181;SDS011;16990;49.056;9.240;2022-09-03T00:48:02;4.78;;;0.93;;
30181;SDS011;16990;49.056;9.240;2022-09-03T00:50:39;3.20;;;1.27;;
30181;SDS011;16990;49.056;9.240;2022-09-03T00:53:21;3.92;;;1.00;;
30181;SDS011;16990;49.056;9.240;2022-09-03T00:55:55;4.45;;;1.02;;
30181;SDS011;16990;49.056;9.240;2022-09-03T00:58:32;1.83;;;1.08;;
30181;SDS011;16990;49.056;9.240;2022-09-03T01:01:12;7.05;;;1.30;;
30181;SDS011;16990;49.056;9.240;2022-09-03T01:03:46;1.08;;;0.90;;
30181;SDS011;16990;49.056;9.240;2022-09-03T01:06:22;3.53;;;1.10;;
30181;SDS011;16990;49.056;9.240;2022-09-03T01:11:49;1.20;;;0.70;;
30181;SDS011;16990;49.056;9.240;2022-09-03T01:14:27;1.67;;;1.05;;
30181;SDS011;16990;49.056;9.240;2022-09-03T01:17:10;2.25;;;1.00;;
30181;SDS011;16990;49.056;9.240;2022-09-03T01:19:56;2.97;;;1.20;;
30181;SDS011;16990;49.056;9.240;2022-09-03T01:22:42;2.33;;;1.10;;
30181;SDS011;16990;49.056;9.240;2022-09-03T01:25:34;1.30;;;0.73;;
30181;SDS011;16990;49.056;9.240;2022-09-03T01:28:17;1.45;;;0.85;;
30181;SDS011;16990;49.056;9.240;2022-09-03T01:30:56;14.55;;;1.23;;
30181;SDS011;16990;49.056;9.240;2022-09-03T01:33:34;1.23;;;0.90;;
30181;SDS011;16990;49.056;9.240;2022-09-03T01:36:07;6.40;;;1.15;;
30181;SDS011;16990;49.056;9.240;2022-09-03T01:38:42;5.28;;;1.08;;
30181;SDS011;16990;49.056;9.240;2022-09-03T01:41:17;1.98;;;0.98;;
30181;SDS011;16990;49.056;9.240;2022-09-03T01:44:09;3.25;;;1.10;;
30181;SDS011;16990;49.056;9.240;2022-09-03T01:46:45;1.58;;;0.93;;
30181;SDS011;16990;49.056;9.240;2022-09-03T01:49:23;4.68;;;1.13;;
30181;SDS011;16990;49.056;9.240;2022-09-03T01:51:58;1.80;;;1.13;;
30181;SDS011;16990;49.056;9.240;2022-09-03T01:54:38;3.58;;;1.05;;
30181;SDS011;16990;49.056;9.240;2022-09-03T01:57:26;1.50;;;1.02;;
30181;SDS011;16990;49.056;9.240;2022-09-03T02:00:15;4.93;;;0.80;;
30181;SDS011;16990;49.056;9.240;2022-09-03T02:02:45;2.30;;;1.20;;
30181;SDS011;16990;49.056;9.240;2022-09-03T02:05:17;0.73;;;0.70;;
30181;SDS011;16990;49.056;9.240;2022-09-03T02:07:49;2.45;;;1.20;;
30181;SDS011;16990;49.056;9.240;2022-09-03T02:10:17;3.63;;;1.17;;
30181;SDS011;16990;49.056;9.240;2022-09-03T02:12:47;1.83;;;0.90;;
30181;SDS011;16990;49.056;9.240;2022-09-03T02:15:18;1.73;;;0.95;;
30181;SDS011;16990;49.056;9.240;2022-09-03T02:17:47;1.70;;;1.00;;
30181;SDS011;16990;49.056;9.240;2022-09-03T02:20:19;1.55;;;1.10;;
30181;SDS011;16990;49.056;9.240;2022-09-03T02:22:48;2.70;;;1.35;;
30181;SDS011;16990;49.056;9.240;2022-09-03T02:25:15;3.80;;;1.17;;
30181;SDS011;16990;49.056;9.240;2022-09-03T02:27:42;2.28;;;0.90;;
30181;SDS011;16990;49.056;9.240;2022-09-03T02:30:11;2.20;;;0.98;;
30181;SDS011;16990;49.056;9.240;2022-09-03T02:32:39;3.47;;;0.85;;
30181;SDS011;16990;49.056;9.240;2022-09-03T02:35:06;1.70;;;1.08;;
30181;SDS011;16990;49.056;9.240;2022-09-03T02:37:34;4.20;;;0.93;;
30181;SDS011;16990;49.056;9.240;2022-09-03T02:40:00;10.27;;;1.83;;
30181;SDS011;16990;49.056;9.240;2022-09-03T02:42:30;6.57;;;1.05;;
30181;SDS011;16990;49.056;9.240;2022-09-03T02:44:59;5.78;;;2.97;;
30181;SDS011;16990;49.056;9.240;2022-09-03T02:47:40;35.50;;;15.50;;
30181;SDS011;16990;49.056;9.240;2022-09-03T02:50:10;36.30;;;18.92;;
30181;SDS011;16990;49.056;9.240;2022-09-03T02:52:36;57.22;;;31.73;;
30181;SDS011;16990;49.056;9.240;2022-09-03T02:55:03;55.08;;;30.40;;
30181;SDS011;16990;49.056;9.240;2022-09-03T02:57:30;56.25;;;31.08;;
30181;SDS011;16990;49.056;9.240;2022-09-03T02:59:57;56.10;;;29.35;;
30181;SDS011;16990;49.056;9.240;2022-09-03T03:02:23;58.65;;;30.55;;
30181;SDS011;16990;49.056;9.240;2022-09-03T03:04:52;53.13;;;29.38;;
30181;SDS011;16990;49.056;9.240;2022-09-03T03:07:19;53.55;;;28.25;;
30181;SDS011;16990;49.056;9.240;2022-09-03T03:09:46;52.83;;;27.38;;
30181;SDS011;16990;49.056;9.240;2022-09-03T03:12:13;52.97;;;26.88;;
30181;SDS011;16990;49.056;9.240;2022-09-03T03:14:41;48.53;;;22.92;;
30181;SDS011;16990;49.056;9.240;2022-09-03T03:17:08;51.10;;;24.17;;
30181;SDS011;16990;49.056;9.240;2022-09-03T03:19:34;41.65;;;20.20;;
30181;SDS011;16990;49.056;9.240;2022-09-03T03:22:02;33.78;;;16.00;;
30181;SDS011;16990;49.056;9.240;2022-09-03T03:24:29;30.48;;;12.50;;
30181;SDS011;16990;49.056;9.240;2022-09-03T03:26:56;21.95;;;9.73;;
30181;SDS011;16990;49.056;9.240;2022-09-03T03:29:23;17.70;;;8.70;;
30181;SDS011;16990;49.056;9.240;2022-09-03T03:31:50;16.05;;;6.50;;
30181;SDS011;16990;49.056;9.240;2022-09-03T03:34:17;13.70;;;4.95;;
30181;SDS011;16990;49.056;9.240;2022-09-03T03:36:44;15.30;;;8.25;;
30181;SDS011;16990;49.056;9.240;2022-09-03T03:39:12;21.10;;;10.02;;
30181;SDS011;16990;49.056;9.240;2022-09-03T03:41:38;20.50;;;8.80;;
30181;SDS011;16990;49.056;9.240;2022-09-03T03:44:05;18.02;;;9.02;;
30181;SDS011;16990;49.056;9.240;2022-09-03T03:46:33;20.17;;;9.43;;
30181;SDS011;16990;49.056;9.240;2022-09-03T03:49:01;18.13;;;8.30;;
30181;SDS011;16990;49.056;9.240;2022-09-03T03:51:30;17.08;;;6.68;;
30181;SDS011;16990;49.056;9.240;2022-09-03T03:53:57;11.18;;;6.03;;
30181;SDS011;16990;49.056;9.240;2022-09-03T03:56:26;9.05;;;4.82;;
30181;SDS011;16990;49.056;9.240;2022-09-03T03:58:53;12.02;;;3.20;;
30181;SDS011;16990;49.056;9.240;2022-09-03T04:01:21;3.58;;;2.20;;
30181;SDS011;16990;49.056;9.240;2022-09-03T04:03:49;4.85;;;2.50;;
30181;SDS011;16990;49.056;9.240;2022-09-03T04:06:17;3.85;;;2.45;;
30181;SDS011;16990;49.056;9.240;2022-09-03T04:08:45;3.67;;;1.75;;
30181;SDS011;16990;49.056;9.240;2022-09-03T04:11:14;8.80;;;2.70;;
30181;SDS011;16990;49.056;9.240;2022-09-03T04:13:43;2.45;;;1.88;;
30181;SDS011;16990;49.056;9.240;2022-09-03T04:16:12;3.25;;;2.15;;
30181;SDS011;16990;49.056;9.240;2022-09-03T04:18:40;4.63;;;2.20;;
30181;SDS011;16990;49.056;9.240;2022-09-03T04:21:08;3.50;;;2.17;;
30181;SDS011;16990;49.056;9.240;2022-09-03T04:23:36;3.42;;;1.90;;
30181;SDS011;16990;49.056;9.240;2022-09-03T04:26:04;9.05;;;1.98;;
30181;SDS011;16990;49.056;9.240;2022-09-03T04:28:32;3.80;;;1.80;;
30181;SDS011;16990;49.056;9.240;2022-09-03T04:31:01;9.50;;;1.58;;
30181;SDS011;16990;49.056;9.240;2022-09-03T04:33:28;3.65;;;1.50;;
30181;SDS011;16990;49.056;9.240;2022-09-03T04:36:02;5.95;;;1.83;;
30181;SDS011;16990;49.056;9.240;2022-09-03T04:38:30;3.65;;;1.60;;
30181;SDS011;16990;49.056;9.240;2022-09-03T04:40:57;4.25;;;1.70;;
30181;SDS011;16990;49.056;9.240;2022-09-03T04:43:24;1.70;;;1.30;;
30181;SDS011;16990;49.056;9.240;2022-09-03T04:45:54;3.10;;;1.60;;
30181;SDS011;16990;49.056;9.240;2022-09-03T04:48:23;2.55;;;1.67;;
30181;SDS011;16990;49.056;9.240;2022-09-03T04:50:50;4.03;;;1.35;;
30181;SDS011;16990;49.056;9.240;2022-09-03T04:53:17;4.63;;;1.85;;
30181;SDS011;16990;49.056;9.240;2022-09-03T04:55:43;3.70;;;1.38;;
30181;SDS011;16990;49.056;9.240;2022-09-03T04:58:10;3.70;;;1.33;;
30181;SDS011;16990;49.056;9.240;2022-09-03T05:00:37;1.98;;;1.42;;
30181;SDS011;16990;49.056;9.240;2022-09-03T05:03:04;3.75;;;1.30;;
30181;SDS011;16990;49.056;9.240;2022-09-03T05:05:32;5.22;;;1.45;;
30181;SDS011;16990;49.056;9.240;2022-09-03T05:07:58;2.60;;;1.40;;
30181;SDS011;16990;49.056;9.240;2022-09-03T05:10:27;5.80;;;1.48;;
30181;SDS011;16990;49.056;9.240;2022-09-03T05:12:57;5.53;;;1.35;;
30181;SDS011;16990;49.056;9.240;2022-09-03T05:15:24;2.40;;;1.30;;
30181;SDS011;16990;49.056;9.240;2022-09-03T05:17:54;2.30;;;1.30;;
30181;SDS011;16990;49.056;9.240;2022-09-03T05:20:21;2.83;;;1.25;;
30181;SDS011;16990;49.056;9.240;2022-09-03T05:22:50;3.42;;;1.20;;
30181;SDS011;16990;49.056;9.240;2022-09-03T05:25:17;1.77;;;1.35;;
30181;SDS011;16990;49.056;9.240;2022-09-03T05:27:44;3.83;;;1.27;;
30181;SDS011;16990;49.056;9.240;2022-09-03T05:30:11;4.28;;;1.30;;
30181;SDS011;16990;49.056;9.240;2022-09-03T05:32:38;0.95;;;0.90;;
30181;SDS011;16990;49.056;9.240;2022-09-03T05:35:05;6.95;;;1.77;;
30181;SDS011;16990;49.056;9.240;2022-09-03T05:37:33;3.92;;;1.73;;
30181;SDS011;16990;49.056;9.240;2022-09-03T05:40:02;1.48;;;1.10;;
30181;SDS011;16990;49.056;9.240;2022-09-03T05:42:29;2.13;;;1.48;;
30181;SDS011;16990;49.056;9.240;2022-09-03T05:44:59;4.80;;;1.13;;
30181;SDS011;16990;49.056;9.240;2022-09-03T05:47:26;2.95;;;1.33;;
30181;SDS011;16990;49.056;9.240;2022-09-03T05:49:52;2.10;;;1.25;;
30181;SDS011;16990;49.056;9.240;2022-09-03T05:52:19;2.28;;;1.30;;
30181;SDS011;16990;49.056;9.240;2022-09-03T05:54:47;2.00;;;1.42;;
30181;SDS011;16990;49.056;9.240;2022-09-03T05:57:15;2.90;;;1.33;;
30181;SDS011;16990;49.056;9.240;2022-09-03T05:59:42;2.58;;;1.30;;
30181;SDS011;16990;49.056;9.240;2022-09-03T06:02:08;2.83;;;1.60;;
30181;SDS011;16990;49.056;9.240;2022-09-03T06:04:35;8.07;;;1.38;;
30181;SDS011;16990;49.056;9.240;2022-09-03T06:07:02;2.55;;;1.30;;
30181;SDS011;16990;49.056;9.240;2022-09-03T06:09:29;7.32;;;1.30;;
30181;SDS011;16990;49.056;9.240;2022-09-03T06:11:55;2.97;;;1.35;;
30181;SDS011;16990;49.056;9.240;2022-09-03T06:14:23;3.42;;;1.80;;
30181;SDS011;16990;49.056;9.240;2022-09-03T06:16:50;2.50;;;1.50;;
30181;SDS011;16990;49.056;9.240;2022-09-03T06:19:17;7.03;;;1.40;;
30181;SDS011;16990;49.056;9.240;2022-09-03T06:21:45;5.10;;;1.60;;
30181;SDS011;16990;49.056;9.240;2022-09-03T06:24:14;3.10;;;1.33;;
30181;SDS011;16990;49.056;9.240;2022-09-03T06:26:42;2.05;;;1.40;;
30181;SDS011;16990;49.056;9.240;2022-09-03T06:29:09;2.67;;;1.30;;
30181;SDS011;16990;49.056;9.240;2022-09-03T06:31:38;2.92;;;1.55;;
30181;SDS011;16990;49.056;9.240;2022-09-03T06:34:05;2.95;;;1.70;;
30181;SDS011;16990;49.056;9.240;2022-09-03T06:36:32;4.50;;;1.80;;
30181;SDS011;16990;49.056;9.240;2022-09-03T06:38:59;3.10;;;1.70;;
30181;SDS011;16990;49.056;9.240;2022-09-03T06:41:26;8.40;;;2.08;;
30181;SDS011;16990;49.056;9.240;2022-09-03T06:43:58;6.55;;;1.92;;
30181;SDS011;16990;49.056;9.240;2022-09-03T06:46:27;3.50;;;2.22;;
30181;SDS011;16990;49.056;9.240;2022-09-03T06:48:56;7.07;;;2.30;;
30181;SDS011;16990;49.056;9.240;2022-09-03T06:51:24;9.93;;;2.45;;
30181;SDS011;16990;49.056;9.240;2022-09-03T06:53:52;7.07;;;2.80;;
30181;SDS011;16990;49.056;9.240;2022-09-03T06:56:21;8.45;;;2.83;;
30181;SDS011;16990;49.056;9.240;2022-09-03T06:58:51;7.45;;;2.58;;
30181;SDS011;16990;49.056;9.240;2022-09-03T07:01:20;6.30;;;2.03;;
30181;SDS011;16990;49.056;9.240;2022-09-03T07:03:51;4.13;;;1.80;;
30181;SDS011;16990;49.056;9.240;2022-09-03T07:06:22;9.77;;;2.08;;
30181;SDS011;16990;49.056;9.240;2022-09-03T07:08:51;2.63;;;1.80;;
30181;SDS011;16990;49.056;9.240;2022-09-03T07:11:19;3.45;;;1.35;;
30181;SDS011;16990;49.056;9.240;2022-09-03T07:13:48;2.85;;;1.50;;
30181;SDS011;16990;49.056;9.240;2022-09-03T07:16:17;6.93;;;1.40;;
30181;SDS011;16990;49.056;9.240;2022-09-03T07:18:45;4.55;;;1.80;;
30181;SDS011;16990;49.056;9.240;2022-09-03T07:21:13;2.60;;;1.60;;
30181;SDS011;16990;49.056;9.240;2022-09-03T07:23:43;2.63;;;1.60;;
30181;SDS011;16990;49.056;9.240;2022-09-03T07:26:11;4.72;;;2.58;;
30181;SDS011;16990;49.056;9.240;2022-09-03T07:28:39;2.33;;;2.10;;
30181;SDS011;16990;49.056;9.240;2022-09-03T07:31:08;2.72;;;1.35;;
30181;SDS011;16990;49.056;9.240;2022-09-03T07:33:37;4.68;;;2.08;;
30181;SDS011;16990;49.056;9.240;2022-09-03T07:36:05;6.40;;;1.63;;
30181;SDS011;16990;49.056;9.240;2022-09-03T07:38:33;5.10;;;1.63;;
30181;SDS011;16990;49.056;9.240;2022-09-03T07:41:03;3.28;;;1.52;;
30181;SDS011;16990;49.056;9.240;2022-09-03T07:43:32;2.75;;;1.95;;
30181;SDS011;16990;49.056;9.240;2022-09-03T07:46:01;5.75;;;1.85;;
30181;SDS011;16990;49.056;9.240;2022-09-03T07:48:28;8.18;;;1.60;;
30181;SDS011;16990;49.056;9.240;2022-09-03T07:50:57;3.40;;;1.60;;
30181;SDS011;16990;49.056;9.240;2022-09-03T07:53:25;4.68;;;1.83;;
30181;SDS011;16990;49.056;9.240;2022-09-03T07:55:53;6.70;;;1.80;;
30181;SDS011;16990;49.056;9.240;2022-09-03T07:58:22;3.55;;;1.65;;
30181;SDS011;16990;49.056;9.240;2022-09-03T08:00:49;4.80;;;1.55;;
30181;SDS011;16990;49.056;9.240;2022-09-03T08:03:15;2.55;;;1.58;;
30181;SDS011;16990;49.056;9.240;2022-09-03T08:05:43;2.42;;;1.77;;
30181;SDS011;16990;49.056;9.240;2022-09-03T08:08:09;4.35;;;2.20;;
30181;SDS011;16990;49.056;9.240;2022-09-03T08:10:38;1.88;;;1.50;;
30181;SDS011;16990;49.056;9.240;2022-09-03T08:13:05;3.88;;;1.42;;
30181;SDS011;16990;49.056;9.240;2022-09-03T08:15:33;2.08;;;1.63;;
30181;SDS011;16990;49.056;9.240;2022-09-03T08:18:01;3.38;;;1.65;;
30181;SDS011;16990;49.056;9.240;2022-09-03T08:20:28;3.72;;;1.73;;
30181;SDS011;16990;49.056;9.240;2022-09-03T08:22:59;2.97;;;1.90;;
30181;SDS011;16990;49.056;9.240;2022-09-03T08:25:27;3.00;;;1.42;;
30181;SDS011;16990;49.056;9.240;2022-09-03T08:27:56;4.25;;;1.88;;
30181;SDS011;16990;49.056;9.240;2022-09-03T08:30:23;2.75;;;1.67;;
30181;SDS011;16990;49.056;9.240;2022-09-03T08:32:53;3.08;;;1.65;;
30181;SDS011;16990;49.056;9.240;2022-09-03T08:35:20;6.95;;;1.83;;
30181;SDS011;16990;49.056;9.240;2022-09-03T08:37:47;2.30;;;1.67;;
30181;SDS011;16990;49.056;9.240;2022-09-03T08:40:16;3.50;;;1.70;;
30181;SDS011;16990;49.056;9.240;2022-09-03T08:42:46;8.90;;;1.60;;
30181;SDS011;16990;49.056;9.240;2022-09-03T08:45:20;4.32;;;2.08;;
30181;SDS011;16990;49.056;9.240;2022-09-03T08:47:57;4.13;;;1.80;;
30181;SDS011;16990;49.056;9.240;2022-09-03T08:50:33;7.30;;;2.40;;
30181;SDS011;16990;49.056;9.240;2022-09-03T08:53:06;3.38;;;2.08;;
30181;SDS011;16990;49.056;9.240;2022-09-03T08:55:38;2.40;;;2.20;;
30181;SDS011;16990;49.056;9.240;2022-09-03T08:58:10;5.45;;;2.00;;
30181;SDS011;16990;49.056;9.240;2022-09-03T09:00:41;4.45;;;2.35;;
30181;SDS011;16990;49.056;9.240;2022-09-03T09:03:31;2.55;;;1.92;;
30181;SDS011;16990;49.056;9.240;2022-09-03T09:06:06;6.25;;;2.22;;
30181;SDS011;16990;49.056;9.240;2022-09-03T09:08:39;8.93;;;2.08;;
30181;SDS011;16990;49.056;9.240;2022-09-03T09:11:15;5.50;;;1.75;;
30181;SDS011;16990;49.056;9.240;2022-09-03T09:13:49;4.30;;;2.30;;
30181;SDS011;16990;49.056;9.240;2022-09-03T09:16:26;5.85;;;1.88;;
30181;SDS011;16990;49.056;9.240;2022-09-03T09:19:04;3.42;;;1.92;;
30181;SDS011;16990;49.056;9.240;2022-09-03T09:21:44;12.13;;;2.53;;
30181;SDS011;16990;49.056;9.240;2022-09-03T09:24:16;15.93;;;2.17;;
30181;SDS011;16990;49.056;9.240;2022-09-03T09:26:47;7.05;;;2.33;;
30181;SDS011;16990;49.056;9.240;2022-09-03T09:29:14;7.05;;;2.40;;
30181;SDS011;16990;49.056;9.240;2022-09-03T09:31:41;6.93;;;2.45;;
30181;SDS011;16990;49.056;9.240;2022-09-03T09:34:11;6.60;;;2.22;;
30181;SDS011;16990;49.056;9.240;2022-09-03T09:36:41;2.95;;;1.88;;
30181;SDS011;16990;49.056;9.240;2022-09-03T09:39:11;2.20;;;1.40;;
30181;SDS011;16990;49.056;9.240;2022-09-03T09:41:40;3.97;;;1.70;;
30181;SDS011;16990;49.056;9.240;2022-09-03T09:44:06;3.42;;;1.90;;
30181;SDS011;16990;49.056;9.240;2022-09-03T09:46:35;11.70;;;2.00;;
30181;SDS011;16990;49.056;9.240;2022-09-03T09:49:07;9.27;;;2.63;;
30181;SDS011;16990;49.056;9.240;2022-09-03T09:52:00;5.90;;;2.65;;
30181;SDS011;16990;49.056;9.240;2022-09-03T09:54:28;2.75;;;1.58;;
30181;SDS011;16990;49.056;9.240;2022-09-03T09:56:58;6.72;;;2.05;;
30181;SDS011;16990;49.056;9.240;2022-09-03T09:59:26;6.22;;;2.08;;
30181;SDS011;16990;49.056;9.240;2022-09-03T10:02:01;5.78;;;2.17;;
30181;SDS011;16990;49.056;9.240;2022-09-03T10:04:35;4.40;;;2.20;;
30181;SDS011;16990;49.056;9.240;2022-09-03T10:07:04;3.95;;;2.42;;
30181;SDS011;16990;49.056;9.240;2022-09-03T10:09:43;4.43;;;2.03;;
30181;SDS011;16990;49.056;9.240;2022-09-03T10:12:12;4.72;;;2.03;;
30181;SDS011;16990;49.056;9.240;2022-09-03T10:14:44;4.05;;;1.83;;
30181;SDS011;16990;49.056;9.240;2022-09-03T10:17:17;3.95;;;2.50;;
30181;SDS011;16990;49.056;9.240;2022-09-03T10:19:49;4.80;;;2.80;;
30181;SDS011;16990;49.056;9.240;2022-09-03T10:22:38;3.15;;;2.13;;
30181;SDS011;16990;49.056;9.240;2022-09-03T10:25:10;4.85;;;3.00;;
30181;SDS011;16990;49.056;9.240;2022-09-03T10:27:40;3.45;;;2.67;;
30181;SDS011;16990;49.056;9.240;2022-09-03T10:30:10;4.20;;;2.50;;
30181;SDS011;16990;49.056;9.240;2022-09-03T10:32:41;5.18;;;2.60;;
30181;SDS011;16990;49.056;9.240;2022-09-03T10:35:17;5.47;;;2.63;;
30181;SDS011;16990;49.056;9.240;2022-09-03T10:37:49;9.43;;;2.28;;
30181;SDS011;16990;49.056;9.240;2022-09-03T10:40:28;4.82;;;2.58;;
30181;SDS011;16990;49.056;9.240;2022-09-03T10:43:12;6.75;;;2.35;;
30181;SDS011;16990;49.056;9.240;2022-09-03T10:45:51;9.05;;;2.75;;
30181;SDS011;16990;49.056;9.240;2022-09-03T10:48:32;4.10;;;2.55;;
30181;SDS011;16990;49.056;9.240;2022-09-03T10:51:12;3.80;;;2.45;;
30181;SDS011;16990;49.056;9.240;2022-09-03T10:53:48;6.38;;;2.70;;
30181;SDS011;16990;49.056;9.240;2022-09-03T10:56:26;2.63;;;2.17;;
30181;SDS011;16990;49.056;9.240;2022-09-03T10:59:09;3.33;;;2.28;;
30181;SDS011;16990;49.056;9.240;2022-09-03T11:01:59;3.25;;;2.40;;
30181;SDS011;16990;49.056;9.240;2022-09-03T11:04:42;5.35;;;2.35;;
30181;SDS011;16990;49.056;9.240;2022-09-03T11:07:19;3.45;;;1.95;;
30181;SDS011;16990;49.056;9.240;2022-09-03T11:09:49;5.88;;;2.60;;
30181;SDS011;16990;49.056;9.240;2022-09-03T11:12:21;7.00;;;2.28;;
30181;SDS011;16990;49.056;9.240;2022-09-03T11:14:53;6.68;;;2.00;;
30181;SDS011;16990;49.056;9.240;2022-09-03T11:17:31;3.17;;;2.08;;
30181;SDS011;16990;49.056;9.240;2022-09-03T11:20:05;5.55;;;2.58;;
30181;SDS011;16990;49.056;9.240;2022-09-03T11:22:41;4.50;;;2.35;;
30181;SDS011;16990;49.056;9.240;2022-09-03T11:25:10;8.48;;;2.25;;
30181;SDS011;16990;49.056;9.240;2022-09-03T11:27:46;2.65;;;2.25;;
30181;SDS011;16990;49.056;9.240;2022-09-03T11:30:21;4.55;;;1.85;;
30181;SDS011;16990;49.056;9.240;2022-09-03T11:32:50;3.53;;;2.65;;
30181;SDS011;16990;49.056;9.240;2022-09-03T11:35:24;9.48;;;2.47;;
30181;SDS011;16990;49.056;9.240;2022-09-03T11:37:56;7.07;;;2.45;;
30181;SDS011;16990;49.056;9.240;2022-09-03T11:40:32;3.53;;;2.17;;
30181;SDS011;16990;49.056;9.240;2022-09-03T11:43:07;8.30;;;2.80;;
30181;SDS011;16990;49.056;9.240;2022-09-03T11:45:38;4.28;;;1.88;;
30181;SDS011;16990;49.056;9.240;2022-09-03T11:48:18;2.28;;;1.73;;
30181;SDS011;16990;49.056;9.240;2022-09-03T11:50:59;4.07;;;2.10;;
30181;SDS011;16990;49.056;9.240;2022-09-03T11:53:31;6.05;;;2.33;;
30181;SDS011;16990;49.056;9.240;2022-09-03T11:56:00;3.10;;;2.47;;
30181;SDS011;16990;49.056;9.240;2022-09-03T11:58:42;3.83;;;2.00;;
30181;SDS011;16990;49.056;9.240;2022-09-03T12:01:09;2.40;;;2.03;;
30181;SDS011;16990;49.056;9.240;2022-09-03T12:03:39;3.90;;;2.00;;
30181;SDS011;16990;49.056;9.240;2022-09-03T12:06:18;2.40;;;1.67;;
30181;SDS011;16990;49.056;9.240;2022-09-03T12:09:04;5.95;;;1.73;;
30181;SDS011;16990;49.056;9.240;2022-09-03T12:11:47;3.30;;;1.70;;
30181;SDS011;16990;49.056;9.240;2022-09-03T12:14:22;2.67;;;1.70;;
30181;SDS011;16990;49.056;9.240;2022-09-03T12:17:03;4.63;;;1.90;;
30181;SDS011;16990;49.056;9.240;2022-09-03T12:19:39;4.55;;;2.03;;
30181;SDS011;16990;49.056;9.240;2022-09-03T12:22:12;7.00;;;1.65;;
30181;SDS011;16990;49.056;9.240;2022-09-03T12:24:41;5.20;;;1.88;;
30181;SDS011;16990;49.056;9.240;2022-09-03T12:27:09;5.38;;;1.73;;
30181;SDS011;16990;49.056;9.240;2022-09-03T12:29:49;3.95;;;1.92;;
30181;SDS011;16990;49.056;9.240;2022-09-03T12:32:23;2.33;;;1.40;;
30181;SDS011;16990;49.056;9.240;2022-09-03T12:34:51;2.55;;;1.67;;
30181;SDS011;16990;49.056;9.240;2022-09-03T12:37:19;9.00;;;1.40;;
30181;SDS011;16990;49.056;9.240;2022-09-03T12:39:53;2.97;;;1.50;;
30181;SDS011;16990;49.056;9.240;2022-09-03T12:42:25;1.75;;;1.52;;
30181;SDS011;16990;49.056;9.240;2022-09-03T12:44:53;6.63;;;1.55;;
30181;SDS011;16990;49.056;9.240;2022-09-03T12:47:21;4.28;;;1.65;;
30181;SDS011;16990;49.056;9.240;2022-09-03T12:49:49;3.78;;;1.50;;
30181;SDS011;16990;49.056;9.240;2022-09-03T12:52:19;6.00;;;1.92;;
30181;SDS011;16990;49.056;9.240;2022-09-03T12:54:51;2.33;;;2.13;;
30181;SDS011;16990;49.056;9.240;2022-09-03T12:57:23;2.13;;;1.80;;
30181;SDS011;16990;49.056;9.240;2022-09-03T12:59:55;1.73;;;1.48;;
30181;SDS011;16990;49.056;9.240;2022-09-03T13:02:26;8.15;;;2.03;;
30181;SDS011;16990;49.056;9.240;2022-09-03T13:05:00;5.15;;;1.60;;
30181;SDS011;16990;49.056;9.240;2022-09-03T13:07:33;5.10;;;2.00;;
30181;SDS011;16990;49.056;9.240;2022-09-03T13:10:14;5.20;;;1.80;;
30181;SDS011;16990;49.056;9.240;2022-09-03T13:12:48;3.10;;;1.83;;
30181;SDS011;16990;49.056;9.240;2022-09-03T13:15:16;4.40;;;2.22;;
30181;SDS011;16990;49.056;9.240;2022-09-03T13:17:57;2.88;;;2.20;;
30181;SDS011;16990;49.056;9.240;2022-09-03T13:20:41;4.00;;;1.90;;
30181;SDS011;16990;49.056;9.240;2022-09-03T13:26:17;4.03;;;1.98;;
30181;SDS011;16990;49.056;9.240;2022-09-03T13:28:54;6.72;;;2.10;;
30181;SDS011;16990;49.056;9.240;2022-09-03T13:31:41;10.32;;;2.55;;
30181;SDS011;16990;49.056;9.240;2022-09-03T13:34:15;4.05;;;2.08;;
30181;SDS011;16990;49.056;9.240;2022-09-03T13:36:48;7.15;;;2.05;;
30181;SDS011;16990;49.056;9.240;2022-09-03T13:39:21;2.70;;;2.10;;
30181;SDS011;16990;49.056;9.240;2022-09-03T13:41:55;4.20;;;2.20;;
30181;SDS011;16990;49.056;9.240;2022-09-03T13:44:33;5.53;;;2.45;;
30181;SDS011;16990;49.056;9.240;2022-09-03T13:47:07;3.38;;;1.92;;
30181;SDS011;16990;49.056;9.240;2022-09-03T13:49:39;4.70;;;2.15;;
30181;SDS011;16990;49.056;9.240;2022-09-03T13:52:29;6.20;;;2.50;;
30181;SDS011;16990;49.056;9.240;2022-09-03T13:55:03;5.50;;;2.90;;
30181;SDS011;16990;49.056;9.240;2022-09-03T13:57:38;6.05;;;2.78;;
30181;SDS011;16990;49.056;9.240;2022-09-03T14:00:12;3.33;;;2.35;;
30181;SDS011;16990;49.056;9.240;2022-09-03T14:02:49;4.43;;;2.50;;
30181;SDS011;16990;49.056;9.240;2022-09-03T14:05:23;3.90;;;2.53;;
30181;SDS011;16990;49.056;9.240;2022-09-03T14:08:04;4.77;;;2.50;;
30181;SDS011;16990;49.056;9.240;2022-09-03T14:10:44;3.13;;;2.42;;
30181;SDS011;16990;49.056;9.240;2022-09-03T14:13:27;3.72;;;2.40;;
30181;SDS011;16990;49.056;9.240;2022-09-03T14:16:04;5.70;;;2.40;;
30181;SDS011;16990;49.056;9.240;2022-09-03T14:18:36;3.42;;;2.50;;
30181;SDS011;16990;49.056;9.240;2022-09-03T14:21:10;4.40;;;2.20;;
30181;SDS011;16990;49.056;9.240;2022-09-03T14:23:45;4.03;;;2.70;;
30181;SDS011;16990;49.056;9.240;2022-09-03T14:26:15;8.43;;;2.13;;
30181;SDS011;16990;49.056;9.240;2022-09-03T14:28:47;3.75;;;2.08;;
30181;SDS011;16990;49.056;9.240;2022-09-03T14:31:24;3.25;;;2.00;;
30181;SDS011;16990;49.056;9.240;2022-09-03T14:34:02;2.75;;;2.00;;
30181;SDS011;16990;49.056;9.240;2022-09-03T14:36:38;2.83;;;1.92;;
30181;SDS011;16990;49.056;9.240;2022-09-03T14:39:11;4.75;;;2.30;;
30181;SDS011;16990;49.056;9.240;2022-09-03T14:47:53;3.70;;;1.80;;
30181;SDS011;16990;49.056;9.240;2022-09-03T14:50:43;2.72;;;1.50;;
30181;SDS011;16990;49.056;9.240;2022-09-03T14:56:39;5.72;;;2.42;;
30181;SDS011;16990;49.056;9.240;2022-09-03T14:59:21;5.40;;;2.50;;
30181;SDS011;16990;49.056;9.240;2022-09-03T15:02:21;5.95;;;2.80;;
30181;SDS011;16990;49.056;9.240;2022-09-03T15:05:08;8.00;;;3.53;;
30181;SDS011;16990;49.056;9.240;2022-09-03T15:07:40;13.43;;;3.90;;
30181;SDS011;16990;49.056;9.240;2022-09-03T15:10:11;10.65;;;3.42;;
30181;SDS011;16990;49.056;9.240;2022-09-03T15:12:45;12.40;;;4.35;;
30181;SDS011;16990;49.056;9.240;2022-09-03T15:15:17;5.97;;;3.10;;
30181;SDS011;16990;49.056;9.240;2022-09-03T15:17:51;5.97;;;3.28;;
30181;SDS011;16990;49.056;9.240;2022-09-03T15:20:29;6.13;;;3.35;;
30181;SDS011;16990;49.056;9.240;2022-09-03T15:23:08;6.25;;;3.50;;
30181;SDS011;16990;49.056;9.240;2022-09-03T15:26:08;6.43;;;2.97;;
30181;SDS011;16990;49.056;9.240;2022-09-03T15:28:49;7.65;;;3.83;;
30181;SDS011;16990;49.056;9.240;2022-09-03T15:31:31;7.70;;;3.20;;